createdAt,value
2023-05-22T00:00:20.231Z,19.13
2023-05-22T00:05:20.662Z,18.96
2023-05-22T00:10:19.512Z,18.91
2023-05-22T00:15:19.764Z,18.81
2023-05-22T00:20:18.918Z,18.79
2023-05-22T00:25:20.540Z,18.69
2023-05-22T00:30:20.762Z,18.70
2023-05-22T00:35:19.525Z,18.60
2023-05-22T00:40:18.467Z,18.53
2023-05-22T00:45:17.415Z,18.55
2023-05-22T00:50:19.334Z,18.59
2023-05-22T00:55:18.207Z,18.64
2023-05-22T01:00:17.506Z,18.64
2023-05-22T01:05:19.070Z,18.69
2023-05-22T01:10:17.901Z,18.77
2023-05-22T01:15:25.353Z,18.82
2023-05-22T01:20:32.964Z,18.92
2023-05-22T01:25:55.005Z,19.01
2023-05-22T01:31:02.065Z,19.05
2023-05-22T01:36:02.814Z,19.12
2023-05-22T01:41:02.860Z,19.16
2023-05-22T01:46:03.167Z,19.23
2023-05-22T01:51:06.090Z,19.28
2023-05-22T01:56:11.458Z,19.28
2023-05-22T02:01:15.393Z,19.31
2023-05-22T02:06:15.526Z,19.31
2023-05-22T02:11:16.675Z,19.29
2023-05-22T02:16:17.566Z,19.23
2023-05-22T02:21:17.313Z,19.18
2023-05-22T02:26:16.056Z,19.13
2023-05-22T02:31:18.433Z,19.10
2023-05-22T02:36:17.099Z,18.98
2023-05-22T02:41:19.637Z,18.92
2023-05-22T02:46:19.858Z,18.97
2023-05-22T02:51:18.684Z,18.96
2023-05-22T02:56:18.979Z,18.93
2023-05-22T03:01:19.223Z,18.75
2023-05-22T03:06:18.389Z,18.67
2023-05-22T03:11:17.226Z,18.57
2023-05-22T03:16:16.169Z,18.43
2023-05-22T03:21:19.354Z,18.33
2023-05-22T03:26:18.197Z,18.39
2023-05-22T03:31:18.018Z,18.33
2023-05-22T03:36:34.232Z,18.32
2023-05-22T03:41:33.589Z,18.35
2023-05-22T03:46:32.495Z,18.35
2023-05-22T03:51:32.848Z,18.45
2023-05-22T03:56:32.317Z,18.53
2023-05-22T04:01:31.130Z,18.54
2023-05-22T04:06:33.105Z,18.61
2023-05-22T04:11:33.313Z,18.61
2023-05-22T04:16:32.383Z,18.71
2023-05-22T04:21:34.433Z,18.85
2023-05-22T04:26:34.896Z,18.99
2023-05-22T04:31:33.662Z,19.11
2023-05-22T04:36:34.176Z,19.27
2023-05-22T04:41:34.465Z,19.46
2023-05-22T04:46:34.552Z,19.59
2023-05-22T04:51:35.148Z,19.64
2023-05-22T04:56:37.254Z,19.75
2023-05-22T05:01:37.972Z,19.83
2023-05-22T05:06:37.902Z,19.79
2023-05-22T05:11:38.363Z,19.77
2023-05-22T05:16:37.268Z,19.60
2023-05-22T05:21:36.180Z,19.58
2023-05-22T05:26:35.008Z,19.64
2023-05-22T05:31:36.315Z,19.71
2023-05-22T05:36:45.682Z,19.74
2023-05-22T05:41:44.734Z,19.78
2023-05-22T05:46:45.535Z,19.87
2023-05-22T05:51:47.059Z,19.90
2023-05-22T05:56:48.023Z,19.96
2023-05-22T06:01:48.420Z,20.07
2023-05-22T06:06:53.920Z,20.14
2023-05-22T06:12:01.584Z,20.31
2023-05-22T06:17:02.107Z,20.46
2023-05-22T06:22:01.018Z,20.57
2023-05-22T06:27:01.667Z,20.58
2023-05-22T06:32:03.175Z,20.74
2023-05-22T06:37:03.823Z,20.84
2023-05-22T06:42:08.778Z,21.47
2023-05-22T06:47:41.097Z,21.96
2023-05-22T06:52:43.335Z,21.87
2023-05-22T06:57:44.042Z,21.81
2023-05-22T07:02:44.772Z,21.77
2023-05-22T07:07:58.244Z,21.77
2023-05-22T07:12:58.085Z,21.91
2023-05-22T07:17:59.094Z,22.03
2023-05-22T07:22:59.025Z,22.15
2023-05-22T07:27:59.600Z,22.24
2023-05-22T07:33:00.012Z,22.42
2023-05-22T07:38:01.600Z,22.47
2023-05-22T07:43:05.746Z,22.63
2023-05-22T07:48:06.499Z,22.67
2023-05-22T07:53:08.462Z,22.66
2023-05-22T07:58:11.191Z,22.68
2023-05-22T08:03:15.248Z,22.77
2023-05-22T08:08:14.177Z,22.91
2023-05-22T08:13:16.871Z,23.14
2023-05-22T08:18:17.060Z,23.59
2023-05-22T08:23:24.576Z,24.25
2023-05-22T08:28:23.506Z,24.62
2023-05-22T08:33:23.885Z,25.13
2023-05-22T08:38:22.736Z,26.00
2023-05-22T08:43:22.080Z,27.17
2023-05-22T08:48:24.574Z,28.43
2023-05-22T08:53:25.896Z,29.10
2023-05-22T08:58:26.069Z,29.87
2023-05-22T09:03:28.718Z,30.42
2023-05-22T09:08:28.677Z,30.87
2023-05-22T09:13:28.609Z,31.51
2023-05-22T09:18:30.381Z,32.00
2023-05-22T09:23:29.599Z,32.62
2023-05-22T09:28:29.392Z,33.53
2023-05-22T09:33:30.860Z,34.15
2023-05-22T09:38:31.597Z,34.67
2023-05-22T09:43:30.519Z,34.95
2023-05-22T09:48:30.843Z,35.27
2023-05-22T09:53:31.092Z,36.05
2023-05-22T09:58:32.337Z,36.54
2023-05-22T10:03:32.881Z,36.45
2023-05-22T10:08:37.075Z,37.39
2023-05-22T10:13:36.859Z,38.20
2023-05-22T10:18:39.162Z,38.30
2023-05-22T10:23:38.253Z,38.30
2023-05-22T10:28:43.075Z,38.16
2023-05-22T10:33:49.289Z,38.91
2023-05-22T10:39:05.829Z,38.69
2023-05-22T10:44:04.852Z,38.84
2023-05-22T10:49:05.048Z,39.03
2023-05-22T10:54:06.038Z,38.84
2023-05-22T10:59:07.618Z,39.46
2023-05-22T11:04:13.025Z,39.36
2023-05-22T11:09:21.118Z,41.00
2023-05-22T11:14:21.548Z,39.65
2023-05-22T11:19:24.245Z,40.02
2023-05-22T11:24:23.306Z,40.29
2023-05-22T11:29:23.438Z,40.18
2023-05-22T11:34:23.884Z,39.77
2023-05-22T11:39:24.420Z,38.68
2023-05-22T11:44:29.672Z,38.03
2023-05-22T11:49:31.580Z,37.45
2023-05-22T11:54:34.059Z,36.56
2023-05-22T11:59:34.076Z,35.99
2023-05-22T12:04:35.715Z,35.81
2023-05-22T12:09:34.608Z,35.99
2023-05-22T12:14:33.947Z,36.50
2023-05-22T12:19:32.727Z,37.49
2023-05-22T12:24:41.015Z,37.44
2023-05-22T12:29:40.743Z,37.77
2023-05-22T12:34:45.081Z,37.51
2023-05-22T12:39:55.148Z,37.99
2023-05-22T12:44:55.669Z,37.28
2023-05-22T12:49:54.672Z,37.58
2023-05-22T12:54:54.796Z,37.76
2023-05-22T12:59:53.556Z,37.96
2023-05-22T13:04:52.305Z,37.29
2023-05-22T13:09:51.705Z,37.26
2023-05-22T13:14:51.504Z,37.87
2023-05-22T13:19:50.420Z,38.03
2023-05-22T13:24:49.124Z,37.83
2023-05-22T13:29:47.925Z,37.80
2023-05-22T13:34:48.101Z,37.41
2023-05-22T13:39:48.061Z,37.88
2023-05-22T13:44:47.003Z,38.16
2023-05-22T13:49:47.320Z,38.73
2023-05-22T13:54:46.021Z,38.92
2023-05-22T13:59:44.832Z,39.60
2023-05-22T14:04:43.699Z,39.51
2023-05-22T14:09:43.879Z,38.87
2023-05-22T14:14:42.605Z,37.74
2023-05-22T14:19:41.365Z,37.84
2023-05-22T14:24:40.241Z,38.39
2023-05-22T14:29:40.417Z,38.81
2023-05-22T14:34:39.573Z,39.09
2023-05-22T14:39:38.576Z,38.52
2023-05-22T14:44:37.354Z,38.26
2023-05-22T14:49:37.478Z,37.93
2023-05-22T14:54:36.221Z,37.81
2023-05-22T14:59:35.385Z,37.40
2023-05-22T15:04:34.219Z,37.48
2023-05-22T15:09:34.258Z,37.58
2023-05-22T15:14:33.069Z,37.73
2023-05-22T15:19:31.918Z,37.09
2023-05-22T15:24:31.154Z,36.31
2023-05-22T15:29:34.148Z,35.78
2023-05-22T15:34:35.241Z,35.55
2023-05-22T15:39:35.048Z,35.14
2023-05-22T15:44:35.129Z,34.81
2023-05-22T15:49:33.952Z,34.29
2023-05-22T15:54:32.668Z,33.73
2023-05-22T15:59:31.700Z,33.21
2023-05-22T16:04:32.319Z,32.65
2023-05-22T16:09:32.779Z,32.36
2023-05-22T16:14:32.834Z,31.70
2023-05-22T16:19:34.236Z,31.33
2023-05-22T16:24:33.394Z,30.72
2023-05-22T16:29:32.808Z,30.30
2023-05-22T16:34:34.239Z,30.29
2023-05-22T16:39:35.592Z,30.13
2023-05-22T16:44:34.409Z,29.77
2023-05-22T16:49:34.651Z,29.49
2023-05-22T16:54:33.443Z,29.08
2023-05-22T16:59:32.785Z,28.84
2023-05-22T17:04:32.425Z,28.68
2023-05-22T17:09:38.645Z,28.33
2023-05-22T17:14:37.945Z,27.97
2023-05-22T17:19:37.472Z,27.79
2023-05-22T17:24:37.994Z,27.74
2023-05-22T17:29:40.292Z,27.59
2023-05-22T17:34:39.778Z,27.41
2023-05-22T17:39:48.532Z,27.27
2023-05-22T17:44:47.790Z,27.18
2023-05-22T17:49:47.152Z,27.06
2023-05-22T17:54:48.087Z,26.94
2023-05-22T17:59:46.996Z,26.75
2023-05-22T18:04:46.426Z,26.61
2023-05-22T18:09:47.456Z,26.42
2023-05-22T18:14:47.722Z,26.27
2023-05-22T18:19:50.019Z,26.14
2023-05-22T18:24:52.821Z,26.08
2023-05-22T18:29:51.908Z,26.09
2023-05-22T18:34:52.056Z,26.05
2023-05-22T18:39:52.366Z,25.95
2023-05-22T18:44:52.384Z,25.85
2023-05-22T18:49:51.138Z,25.76
2023-05-22T18:54:51.273Z,25.65
2023-05-22T18:59:51.032Z,25.47
2023-05-22T19:04:50.580Z,25.25
2023-05-22T19:09:49.794Z,25.17
2023-05-22T19:14:50.072Z,25.07
2023-05-22T19:19:48.811Z,25.01
2023-05-22T19:24:47.604Z,24.91
2023-05-22T19:29:46.544Z,24.73
2023-05-22T19:34:47.675Z,24.63
2023-05-22T19:39:46.471Z,24.52
2023-05-22T19:44:45.245Z,24.42
2023-05-22T19:49:44.045Z,24.22
2023-05-22T19:54:44.267Z,24.14
2023-05-22T19:59:43.147Z,24.02
2023-05-22T20:04:43.149Z,24.00
2023-05-22T20:09:43.338Z,23.94
2023-05-22T20:14:42.210Z,23.94
2023-05-22T20:19:45.334Z,23.94
2023-05-22T20:24:45.535Z,23.91
2023-05-22T20:29:44.282Z,23.81
2023-05-22T20:34:43.155Z,23.81
2023-05-22T20:39:42.968Z,23.78
2023-05-22T20:44:43.157Z,23.70
2023-05-22T20:49:41.996Z,23.61
2023-05-22T20:54:41.858Z,23.54
2023-05-22T20:59:42.030Z,23.44
2023-05-22T21:04:40.736Z,23.35
2023-05-22T21:09:39.561Z,23.28
2023-05-22T21:14:47.200Z,23.18
2023-05-22T21:19:46.328Z,23.11
2023-05-22T21:24:45.031Z,23.04
2023-05-22T21:29:45.198Z,22.98
2023-05-22T21:34:43.919Z,22.93
2023-05-22T21:39:42.804Z,22.85
2023-05-22T21:44:41.649Z,22.81
2023-05-22T21:49:41.725Z,22.77
2023-05-22T21:54:40.829Z,22.70
2023-05-22T21:59:40.539Z,22.62
2023-05-22T22:04:39.320Z,22.49
2023-05-22T22:09:39.413Z,22.39
2023-05-22T22:14:38.263Z,22.24
2023-05-22T22:19:37.200Z,22.11
2023-05-22T22:24:36.282Z,22.01
2023-05-22T22:29:36.475Z,21.94
2023-05-22T22:34:35.163Z,21.83
2023-05-22T22:39:34.385Z,21.69
2023-05-22T22:44:33.456Z,21.58
2023-05-22T22:49:34.155Z,21.47
2023-05-22T22:54:32.972Z,21.39
2023-05-22T22:59:31.934Z,21.35
2023-05-22T23:04:31.463Z,21.32
2023-05-22T23:09:31.689Z,21.30
2023-05-22T23:14:30.771Z,21.25
2023-05-22T23:19:29.567Z,21.15
2023-05-22T23:24:28.572Z,21.08
2023-05-22T23:29:28.791Z,21.01
2023-05-22T23:34:27.611Z,20.95
2023-05-22T23:39:26.846Z,20.87
2023-05-22T23:44:25.682Z,20.73
2023-05-22T23:49:26.551Z,20.67
2023-05-22T23:54:25.376Z,20.53
2023-05-22T23:59:24.227Z,20.35
